createdAt,value
2022-10-01T00:00:55.849Z,13.25
2022-10-01T00:03:23.963Z,13.28
2022-10-01T00:06:05.374Z,13.28
2022-10-01T00:08:32.691Z,13.24
2022-10-01T00:11:02.487Z,13.20
2022-10-01T00:13:30.619Z,13.21
2022-10-01T00:15:57.657Z,13.24
2022-10-01T00:18:24.626Z,13.24
2022-10-01T00:20:51.593Z,13.22
2022-10-01T00:23:19.892Z,13.20
2022-10-01T00:25:46.855Z,13.21
2022-10-01T00:28:13.821Z,13.26
2022-10-01T00:30:46.613Z,13.33
2022-10-01T00:33:13.763Z,13.37
2022-10-01T00:35:40.703Z,13.37
2022-10-01T00:38:07.609Z,13.37
2022-10-01T00:40:34.672Z,13.42
2022-10-01T00:43:01.605Z,13.48
2022-10-01T00:45:28.557Z,13.46
2022-10-01T00:47:56.346Z,13.42
2022-10-01T00:50:33.029Z,13.37
2022-10-01T00:53:01.878Z,13.32
2022-10-01T00:55:31.603Z,13.32
2022-10-01T00:57:58.602Z,13.34
2022-10-01T01:00:25.580Z,13.31
2022-10-01T01:02:52.531Z,13.27
2022-10-01T01:05:19.891Z,13.22
2022-10-01T01:07:48.298Z,13.16
2022-10-01T01:10:17.146Z,13.15
2022-10-01T01:13:16.283Z,13.18
2022-10-01T01:16:13.871Z,13.15
2022-10-01T01:18:52.915Z,13.06
2022-10-01T01:21:30.436Z,12.98
2022-10-01T01:24:15.618Z,12.88
2022-10-01T01:27:16.373Z,12.86
2022-10-01T01:29:53.180Z,12.86
2022-10-01T01:32:32.925Z,12.81
2022-10-01T01:35:01.169Z,12.75
2022-10-01T01:37:31.977Z,12.67
2022-10-01T01:39:59.086Z,12.60
2022-10-01T01:42:46.493Z,12.58
2022-10-01T01:45:16.204Z,12.60
2022-10-01T01:47:43.760Z,12.58
2022-10-01T01:50:11.021Z,12.53
2022-10-01T01:52:38.499Z,12.48
2022-10-01T01:55:08.710Z,12.42
2022-10-01T01:57:42.868Z,12.42
2022-10-01T02:00:11.966Z,12.46
2022-10-01T02:02:43.541Z,12.45
2022-10-01T02:08:13.089Z,12.38
2022-10-01T02:10:59.388Z,12.36
2022-10-01T02:13:42.199Z,12.38
2022-10-01T02:16:09.279Z,12.36
2022-10-01T02:18:40.701Z,12.31
2022-10-01T02:21:17.372Z,12.25
2022-10-01T02:23:51.827Z,12.25
2022-10-01T02:26:20.784Z,12.29
2022-10-01T02:28:48.452Z,12.28
2022-10-01T02:31:16.022Z,12.24
2022-10-01T02:33:43.464Z,12.19
2022-10-01T02:36:10.611Z,12.12
2022-10-01T02:38:38.126Z,12.11
2022-10-01T02:41:06.003Z,12.14
2022-10-01T02:43:40.635Z,12.15
2022-10-01T02:46:46.415Z,12.11
2022-10-01T02:49:13.607Z,12.06
2022-10-01T02:51:57.510Z,12.00
2022-10-01T02:54:28.655Z,11.92
2022-10-01T02:57:14.859Z,11.92
2022-10-01T02:59:42.001Z,11.96
2022-10-01T03:02:09.232Z,11.96
2022-10-01T03:04:36.443Z,11.96
2022-10-01T03:07:26.613Z,11.94
2022-10-01T03:13:32.224Z,12.09
2022-10-01T03:19:44.856Z,12.13
2022-10-01T03:26:31.150Z,12.22
2022-10-01T03:28:58.222Z,12.27
2022-10-01T03:31:25.494Z,12.28
2022-10-01T03:33:52.679Z,12.29
2022-10-01T03:36:19.779Z,12.30
2022-10-01T03:38:46.834Z,12.35
2022-10-01T03:41:16.224Z,12.41
2022-10-01T03:43:43.476Z,12.44
2022-10-01T03:46:13.574Z,12.43
2022-10-01T03:48:40.744Z,12.41
2022-10-01T03:51:07.799Z,12.44
2022-10-01T03:53:34.939Z,12.48
2022-10-01T03:56:02.310Z,12.49
2022-10-01T03:58:29.752Z,12.47
2022-10-01T04:00:57.927Z,12.43
2022-10-01T04:03:25.178Z,12.41
2022-10-01T04:05:52.327Z,12.45
2022-10-01T04:08:24.041Z,12.50
2022-10-01T04:10:51.642Z,12.53
2022-10-01T04:13:18.692Z,12.53
2022-10-01T04:15:45.774Z,12.54
2022-10-01T04:18:12.883Z,12.59
2022-10-01T04:20:39.934Z,12.65
2022-10-01T04:23:06.981Z,12.69
2022-10-01T04:25:34.334Z,12.69
2022-10-01T04:28:03.140Z,12.69
2022-10-01T04:30:32.830Z,12.72
2022-10-01T04:33:00.188Z,12.77
2022-10-01T04:35:27.744Z,12.78
2022-10-01T04:37:59.314Z,12.78
2022-10-01T04:40:26.549Z,12.76
2022-10-01T04:42:53.598Z,12.80
2022-10-01T04:45:20.643Z,12.88
2022-10-01T04:47:49.296Z,12.93
2022-10-01T04:50:17.017Z,12.93
2022-10-01T04:52:47.416Z,12.96
2022-10-01T04:55:15.551Z,13.01
2022-10-01T04:57:42.637Z,13.08
2022-10-01T05:00:12.415Z,13.13
2022-10-01T05:02:39.460Z,13.15
2022-10-01T05:05:07.638Z,13.16
2022-10-01T05:07:34.940Z,13.19
2022-10-01T05:10:02.071Z,13.24
2022-10-01T05:12:29.123Z,13.24
2022-10-01T05:14:56.524Z,13.22
2022-10-01T05:17:23.725Z,13.20
2022-10-01T05:19:50.874Z,13.23
2022-10-01T05:22:17.922Z,13.31
2022-10-01T05:24:44.968Z,13.35
2022-10-01T05:27:13.558Z,13.39
2022-10-01T05:29:41.734Z,13.42
2022-10-01T05:32:09.492Z,13.47
2022-10-01T05:34:36.740Z,13.56
2022-10-01T05:37:03.891Z,13.62
2022-10-01T05:39:30.945Z,13.65
2022-10-01T05:41:59.145Z,13.66
2022-10-01T05:44:28.617Z,13.73
2022-10-01T05:46:55.705Z,13.81
2022-10-01T05:49:24.621Z,13.84
2022-10-01T05:51:51.608Z,13.86
2022-10-01T05:54:19.923Z,13.86
2022-10-01T05:56:47.049Z,13.91
2022-10-01T05:59:14.077Z,13.99
2022-10-01T06:01:41.266Z,14.04
2022-10-01T06:04:10.522Z,14.07
2022-10-01T06:06:38.092Z,14.12
2022-10-01T06:09:05.538Z,14.22
2022-10-01T06:11:32.828Z,14.33
2022-10-01T06:14:00.043Z,14.43
2022-10-01T06:16:27.204Z,14.59
2022-10-01T06:18:57.773Z,14.82
2022-10-01T06:21:25.796Z,15.12
2022-10-01T06:23:53.248Z,15.39
2022-10-01T06:26:20.268Z,15.62
2022-10-01T06:28:50.925Z,15.86
2022-10-01T06:31:18.842Z,16.12
2022-10-01T06:33:45.862Z,16.41
2022-10-01T06:36:12.912Z,16.69
2022-10-01T06:38:40.141Z,16.92
2022-10-01T06:41:07.155Z,17.15
2022-10-01T06:43:34.241Z,17.39
2022-10-01T06:46:02.903Z,17.62
2022-10-01T06:48:31.152Z,17.90
2022-10-01T06:50:58.557Z,18.18
2022-10-01T06:53:26.864Z,18.42
2022-10-01T06:55:54.288Z,18.61
2022-10-01T06:58:22.562Z,18.80
2022-10-01T07:00:49.986Z,18.96
2022-10-01T07:03:20.023Z,19.12
2022-10-01T07:05:47.717Z,19.28
2022-10-01T07:08:14.921Z,19.37
2022-10-01T07:10:42.168Z,19.45
2022-10-01T07:13:10.736Z,19.53
2022-10-01T07:15:37.997Z,19.70
2022-10-01T07:18:05.737Z,19.90
2022-10-01T07:20:36.284Z,20.08
2022-10-01T07:23:04.843Z,20.30
2022-10-01T07:25:32.321Z,20.48
2022-10-01T07:28:01.190Z,20.63
2022-10-01T07:30:28.668Z,20.76
2022-10-01T07:32:55.726Z,20.93
2022-10-01T07:39:48.573Z,21.38
2022-10-01T07:42:17.484Z,21.53
2022-10-01T07:44:45.049Z,21.55
2022-10-01T07:47:12.502Z,21.54
2022-10-01T07:49:40.163Z,21.49
2022-10-01T07:52:12.372Z,21.41
2022-10-01T07:54:41.158Z,21.31
2022-10-01T07:57:08.271Z,21.29
2022-10-01T07:59:35.345Z,21.30
2022-10-01T08:02:02.391Z,21.30
2022-10-01T08:04:48.151Z,21.27
2022-10-01T08:07:15.708Z,21.24
2022-10-01T08:09:47.568Z,21.22
2022-10-01T08:12:14.617Z,21.19
2022-10-01T08:14:42.175Z,21.16
2022-10-01T08:17:09.323Z,21.14
2022-10-01T08:19:40.375Z,21.19
2022-10-01T08:22:07.517Z,21.22
2022-10-01T08:24:37.642Z,21.19
2022-10-01T08:27:07.348Z,21.17
2022-10-01T08:29:45.186Z,21.14
2022-10-01T08:32:42.031Z,21.08
2022-10-01T08:35:13.746Z,20.99
2022-10-01T08:37:40.805Z,20.86
2022-10-01T08:40:12.349Z,20.73
2022-10-01T08:43:07.583Z,20.58
2022-10-01T08:45:59.137Z,20.41
2022-10-01T08:48:32.473Z,20.25
2022-10-01T08:51:43.156Z,20.20
2022-10-01T08:54:22.681Z,20.15
2022-10-01T08:56:56.383Z,20.07
2022-10-01T08:59:40.438Z,19.97
2022-10-01T09:02:25.294Z,19.83
2022-10-01T09:05:04.798Z,19.68
2022-10-01T09:07:50.934Z,19.52
2022-10-01T09:10:30.980Z,19.38
2022-10-01T09:13:28.876Z,19.26
2022-10-01T09:16:35.896Z,19.23
2022-10-01T09:19:47.725Z,19.22
2022-10-01T09:22:41.506Z,19.14
2022-10-01T09:25:17.258Z,19.05
2022-10-01T09:27:44.418Z,18.98
2022-10-01T09:30:19.478Z,18.94
2022-10-01T09:32:54.906Z,18.93
2022-10-01T09:35:55.005Z,19.11
2022-10-01T09:38:43.358Z,19.63
2022-10-01T09:41:10.906Z,20.27
2022-10-01T09:43:39.294Z,20.88
2022-10-01T09:46:13.785Z,21.43
2022-10-01T09:48:46.498Z,22.01
2022-10-01T09:51:23.247Z,22.58
2022-10-01T09:54:21.386Z,23.10
2022-10-01T09:57:00.268Z,23.52
2022-10-01T09:59:53.323Z,23.73
2022-10-01T10:02:24.762Z,23.85
2022-10-01T10:05:17.736Z,23.96
2022-10-01T10:07:55.636Z,24.05
2022-10-01T10:10:29.543Z,24.15
2022-10-01T10:12:59.969Z,24.22
2022-10-01T10:15:30.142Z,24.26
2022-10-01T10:18:22.955Z,24.28
2022-10-01T10:20:52.136Z,24.35
2022-10-01T10:23:20.820Z,24.45
2022-10-01T10:26:03.039Z,24.59
2022-10-01T10:28:46.962Z,24.78
2022-10-01T10:31:25.313Z,25.06
2022-10-01T10:34:23.251Z,25.36
2022-10-01T10:36:52.556Z,25.73
2022-10-01T10:39:22.670Z,25.91
2022-10-01T10:41:53.788Z,25.89
2022-10-01T10:44:21.575Z,25.72
2022-10-01T10:46:49.438Z,25.47
2022-10-01T10:49:30.317Z,25.21
2022-10-01T10:52:01.062Z,24.94
2022-10-01T10:54:28.099Z,24.74
2022-10-01T10:57:03.794Z,24.58
2022-10-01T10:59:32.883Z,24.45
2022-10-01T11:02:01.268Z,24.31
2022-10-01T11:04:42.705Z,24.17
2022-10-01T11:07:11.009Z,23.99
2022-10-01T11:10:05.986Z,23.83
2022-10-01T11:12:56.788Z,23.63
2022-10-01T11:15:30.799Z,23.45
2022-10-01T11:18:10.787Z,23.32
2022-10-01T11:20:40.766Z,23.19
2022-10-01T11:23:47.353Z,23.06
2022-10-01T11:26:30.670Z,22.90
2022-10-01T11:29:02.013Z,22.72
2022-10-01T11:31:52.766Z,22.59
2022-10-01T11:35:01.599Z,22.44
2022-10-01T11:38:00.026Z,22.31
2022-10-01T11:40:36.024Z,22.24
2022-10-01T11:43:07.157Z,22.20
2022-10-01T11:45:38.445Z,22.18
2022-10-01T11:48:07.977Z,22.16
2022-10-01T11:50:39.212Z,22.18
2022-10-01T11:53:18.045Z,22.20
2022-10-01T11:56:06.546Z,22.21
2022-10-01T11:58:53.092Z,22.22
2022-10-01T12:01:39.411Z,22.24
2022-10-01T12:04:12.602Z,22.25
2022-10-01T12:06:45.249Z,22.23
2022-10-01T12:09:44.884Z,22.20
2022-10-01T12:12:20.338Z,22.17
2022-10-01T12:15:06.236Z,22.13
2022-10-01T12:18:12.485Z,22.08
2022-10-01T12:20:50.489Z,22.00
2022-10-01T12:23:22.761Z,22.00
2022-10-01T12:26:09.466Z,22.00
2022-10-01T12:28:55.553Z,21.93
2022-10-01T12:31:43.835Z,21.90
2022-10-01T12:34:40.544Z,21.96
2022-10-01T12:37:46.197Z,22.10
2022-10-01T12:40:49.083Z,22.28
2022-10-01T12:43:24.128Z,22.40
2022-10-01T12:46:32.591Z,22.46
2022-10-01T12:49:13.822Z,22.48
2022-10-01T12:51:45.491Z,22.47
2022-10-01T12:54:26.701Z,22.46
2022-10-01T12:57:04.961Z,22.46
2022-10-01T13:00:00.898Z,22.47
2022-10-01T13:02:53.298Z,22.56
2022-10-01T13:05:29.644Z,22.68
2022-10-01T13:08:00.122Z,22.77
2022-10-01T13:10:59.155Z,22.83
2022-10-01T13:13:41.836Z,22.80
2022-10-01T13:16:13.540Z,22.76
2022-10-01T13:19:09.002Z,22.74
2022-10-01T13:21:39.120Z,22.71
2022-10-01T13:24:10.160Z,22.65
2022-10-01T13:27:05.984Z,22.59
2022-10-01T13:29:48.104Z,22.50
2022-10-01T13:32:34.746Z,22.42
2022-10-01T13:35:24.267Z,22.34
2022-10-01T13:37:51.419Z,22.28
2022-10-01T13:40:32.798Z,22.26
2022-10-01T13:43:19.916Z,22.25
2022-10-01T13:45:48.574Z,22.23
2022-10-01T13:48:24.252Z,22.22
2022-10-01T13:51:06.150Z,22.22
2022-10-01T13:53:37.698Z,22.21
2022-10-01T13:56:05.470Z,22.25
2022-10-01T13:58:36.159Z,22.23
2022-10-01T14:01:05.641Z,22.19
2022-10-01T14:03:34.697Z,22.16
2022-10-01T14:06:03.072Z,22.10
2022-10-01T14:08:50.145Z,22.05
2022-10-01T14:11:46.142Z,22.00
2022-10-01T14:14:38.364Z,21.94
2022-10-01T14:17:05.808Z,21.87
2022-10-01T14:19:33.166Z,21.84
2022-10-01T14:22:04.063Z,21.86
2022-10-01T14:26:01.466Z,21.94
2022-10-01T14:28:53.603Z,21.92
2022-10-01T14:31:33.482Z,21.90
2022-10-01T14:34:28.860Z,21.86
2022-10-01T14:36:55.906Z,21.77
2022-10-01T14:39:27.278Z,21.70
2022-10-01T14:41:55.294Z,21.65
2022-10-01T14:44:29.416Z,21.61
2022-10-01T14:46:58.297Z,21.61
2022-10-01T14:49:30.263Z,21.60
2022-10-01T14:52:08.275Z,21.58
2022-10-01T14:54:57.131Z,21.51
2022-10-01T14:58:15.866Z,21.42
2022-10-01T15:00:50.801Z,21.31
2022-10-01T15:04:05.628Z,21.24
2022-10-01T15:10:32.464Z,21.11
2022-10-01T15:13:05.863Z,21.05
2022-10-01T15:19:14.164Z,20.88
2022-10-01T15:22:02.510Z,20.81
2022-10-01T15:24:41.343Z,20.77
2022-10-01T15:27:11.859Z,20.72
2022-10-01T15:29:40.344Z,20.63
2022-10-01T15:32:59.172Z,20.54
2022-10-01T15:35:26.553Z,20.43
2022-10-01T15:37:53.957Z,20.36
2022-10-01T15:40:23.974Z,20.31
2022-10-01T15:43:09.556Z,20.27
2022-10-01T15:45:36.602Z,20.20
2022-10-01T15:48:03.760Z,20.11
2022-10-01T15:50:36.786Z,20.03
2022-10-01T15:53:17.311Z,19.94
2022-10-01T15:55:47.838Z,19.89
2022-10-01T15:58:22.052Z,19.85
2022-10-01T16:01:12.586Z,19.79
2022-10-01T16:03:42.060Z,19.71
2022-10-01T16:06:18.731Z,19.63
2022-10-01T16:08:52.225Z,19.56
2022-10-01T16:11:20.507Z,19.55
2022-10-01T16:13:49.290Z,19.55
2022-10-01T16:16:29.972Z,19.51
2022-10-01T16:19:28.567Z,19.46
2022-10-01T16:22:21.289Z,19.39
2022-10-01T16:24:49.365Z,19.31
2022-10-01T16:27:20.610Z,19.31
2022-10-01T16:30:20.652Z,19.32
2022-10-01T16:32:48.186Z,19.26
2022-10-01T16:35:16.400Z,19.20
2022-10-01T16:37:44.327Z,19.15
2022-10-01T16:40:16.039Z,19.14
2022-10-01T16:42:44.365Z,19.15
2022-10-01T16:45:19.010Z,19.12
2022-10-01T16:47:46.238Z,19.06
2022-10-01T16:50:15.018Z,19.03
2022-10-01T16:52:42.098Z,19.00
2022-10-01T16:55:26.536Z,19.00
2022-10-01T16:57:56.960Z,19.01
2022-10-01T17:00:27.896Z,18.98
2022-10-01T17:02:55.441Z,18.94
2022-10-01T17:05:27.413Z,18.89
2022-10-01T17:07:55.381Z,18.89
2022-10-01T17:10:22.838Z,18.90
2022-10-01T17:12:49.927Z,18.89
2022-10-01T17:15:19.442Z,18.87
2022-10-01T17:41:23.272Z,18.89
2022-10-01T17:43:50.400Z,18.84
2022-10-01T17:46:17.433Z,18.79
2022-10-01T17:48:45.009Z,18.80
2022-10-01T17:51:14.716Z,18.83
2022-10-01T17:53:42.850Z,18.82
2022-10-01T17:56:15.478Z,18.79
2022-10-01T17:58:45.378Z,18.77
2022-10-01T18:01:19.967Z,18.80
2022-10-01T18:03:47.911Z,18.83
2022-10-01T18:06:17.479Z,18.84
2022-10-01T18:08:55.116Z,18.81
2022-10-01T18:11:24.684Z,18.80
2022-10-01T18:13:52.803Z,18.81
2022-10-01T18:16:20.288Z,18.84
2022-10-01T18:21:36.644Z,18.79
2022-10-01T18:24:05.172Z,18.74
2022-10-01T18:26:33.906Z,18.70
2022-10-01T18:29:01.558Z,18.67
2022-10-01T18:31:41.666Z,18.68
2022-10-01T18:34:17.589Z,18.66
2022-10-01T18:36:55.673Z,18.61
2022-10-01T18:39:35.948Z,18.57
2022-10-01T18:42:04.013Z,18.51
2022-10-01T18:44:31.102Z,18.53
2022-10-01T18:47:46.026Z,18.55
2022-10-01T18:50:30.855Z,18.54
2022-10-01T18:53:25.998Z,18.49
2022-10-01T18:56:25.498Z,18.43
2022-10-01T18:58:52.546Z,18.37
2022-10-01T19:01:29.746Z,18.38
2022-10-01T19:04:32.420Z,18.38
2022-10-01T19:07:02.453Z,18.35
2022-10-01T19:09:36.656Z,18.30
2022-10-01T19:12:08.095Z,18.26
2022-10-01T19:14:41.284Z,18.28
2022-10-01T19:17:11.304Z,18.31
2022-10-01T19:20:10.406Z,18.31
2022-10-01T19:23:01.205Z,18.28
2022-10-01T19:25:43.511Z,18.23
2022-10-01T19:28:26.001Z,18.18
2022-10-01T19:31:15.540Z,18.17
2022-10-01T19:33:49.254Z,18.16
2022-10-01T19:36:34.597Z,18.14
2022-10-01T19:39:04.889Z,18.10
2022-10-01T19:41:43.420Z,18.04
2022-10-01T19:44:19.983Z,17.99
2022-10-01T19:46:47.727Z,17.99
2022-10-01T19:49:21.842Z,18.01
2022-10-01T19:51:56.798Z,18.00
2022-10-01T19:54:27.817Z,17.96
2022-10-01T19:56:57.061Z,17.93
2022-10-01T19:59:24.201Z,17.87
2022-10-01T20:02:06.064Z,17.88
2022-10-01T20:04:39.573Z,17.90
2022-10-01T20:07:18.293Z,17.88
2022-10-01T20:09:46.703Z,17.85
2022-10-01T20:12:27.031Z,17.81
2022-10-01T20:15:09.877Z,17.80
2022-10-01T20:17:43.060Z,17.79
2022-10-01T20:20:41.216Z,17.76
2022-10-01T20:23:27.516Z,17.70
2022-10-01T20:26:25.896Z,17.64
2022-10-01T20:28:59.296Z,17.64
2022-10-01T20:31:39.808Z,17.65
2022-10-01T20:34:10.418Z,17.63
2022-10-01T20:36:49.106Z,17.59
2022-10-01T20:39:22.917Z,17.55
2022-10-01T20:41:53.416Z,17.57
2022-10-01T20:44:34.622Z,17.61
2022-10-01T20:47:36.720Z,17.62
2022-10-01T20:50:12.425Z,17.60
2022-10-01T20:52:53.415Z,17.58
2022-10-01T20:55:27.019Z,17.59
2022-10-01T20:57:57.802Z,17.59
2022-10-01T21:00:27.012Z,17.56
2022-10-01T21:03:05.619Z,17.50
2022-10-01T21:05:43.436Z,17.43
2022-10-01T21:08:42.651Z,17.43
2022-10-01T21:11:45.660Z,17.42
2022-10-01T21:14:21.650Z,17.38
2022-10-01T21:17:13.677Z,17.33
2022-10-01T21:19:43.766Z,17.31
2022-10-01T21:22:17.265Z,17.34
2022-10-01T21:25:02.748Z,17.34
2022-10-01T21:27:33.680Z,17.30
2022-10-01T21:30:14.770Z,17.25
2022-10-01T21:32:51.127Z,17.19
2022-10-01T21:35:43.285Z,17.20
2022-10-01T21:38:51.063Z,17.25
2022-10-01T21:41:27.942Z,17.25
2022-10-01T21:44:11.189Z,17.20
2022-10-01T21:47:05.966Z,17.16
2022-10-01T21:49:48.298Z,17.18
2022-10-01T21:52:45.318Z,17.20
2022-10-01T21:55:32.080Z,17.18
2022-10-01T21:58:15.922Z,17.13
2022-10-01T22:00:43.277Z,17.09
2022-10-01T22:03:23.586Z,17.10
2022-10-01T22:05:57.695Z,17.11
2022-10-01T22:08:30.927Z,17.11
2022-10-01T22:11:02.054Z,17.07
2022-10-01T22:13:37.221Z,17.02
2022-10-01T22:16:07.857Z,16.99
2022-10-01T22:18:45.599Z,17.00
2022-10-01T22:21:14.382Z,16.98
2022-10-01T22:23:45.391Z,16.95
2022-10-01T22:26:15.893Z,16.94
2022-10-01T22:28:42.993Z,16.96
2022-10-01T22:31:15.958Z,16.98
2022-10-01T22:34:01.949Z,16.97
2022-10-01T22:36:35.740Z,16.94
2022-10-01T22:39:06.843Z,16.90
2022-10-01T22:41:47.822Z,16.90
2022-10-01T22:44:22.117Z,16.92
2022-10-01T22:46:49.046Z,16.91
2022-10-01T22:49:33.825Z,16.87
2022-10-01T22:52:14.612Z,16.85
2022-10-01T22:54:50.757Z,16.87
2022-10-01T22:57:39.261Z,16.90
2022-10-01T23:00:07.972Z,16.90
2022-10-01T23:03:07.095Z,16.88
2022-10-01T23:05:49.507Z,16.85
2022-10-01T23:08:40.817Z,16.87
2022-10-01T23:11:34.325Z,16.90
2022-10-01T23:14:16.687Z,16.89
2022-10-01T23:17:06.780Z,16.87
2022-10-01T23:19:33.845Z,16.86
2022-10-01T23:22:04.057Z,16.89
2022-10-01T23:24:34.268Z,16.93
2022-10-01T23:27:14.344Z,16.94
2022-10-01T23:30:04.538Z,16.91
2022-10-01T23:32:56.055Z,16.86
2022-10-01T23:35:31.795Z,16.79
2022-10-01T23:38:14.252Z,16.78
2022-10-01T23:40:42.364Z,16.77
2022-10-01T23:43:26.858Z,16.74
2022-10-01T23:46:16.230Z,16.68
2022-10-01T23:48:54.533Z,16.57
2022-10-01T23:51:27.328Z,16.49
2022-10-01T23:54:32.422Z,16.44
2022-10-01T23:57:25.996Z,16.35
2022-10-01T23:59:55.899Z,16.23
